Galesburg, MI (49053)

6:58 PM EST on January 21, 2017 (GMT -0500)
Fleetwood | | Change Station
Active Advisory: Dense Fog Advisory

Elev 801 ft 42.29 °N, 85.43 °W | Updated 1 second ago

Clear
Clear
51.4 °F
Feels Like 51.4 °F
N
0.0
Wind Variable Wind from SSE
Gusts 0.0 mph

Today
High -- | Low -- °F
--% Chance of Precip.
Yesterday
High -- | Low -- °F
Precip. -- in
Pressure 29.57 in
Visibility 10.0 miles
Clouds Few 3300 ft
Dew Point 38 °F
Humidity 59%
Rainfall 0.00 in
Snow Depth Not available.
8:04 AM 5:42 PM
Waning Crescent, 31% visible
METAR KAZO 212353Z 19004KT 10SM FEW033 12/08 A2956 RMK AO2 SLP014 T01170083 10161 20111 53017
Pressure 29.57 in
Visibility 10.0 miles
Clouds Few 3300 ft
Dew Point 38 °F
Humidity 59%
Rainfall 0.00 in
Snow Depth Not available.
8:04 AM 5:42 PM
Waning Crescent, 31% visible
METAR KAZO 212353Z 19004KT 10SM FEW033 12/08 A2956 RMK AO2 SLP014 T01170083 10161 20111 53017

Get Your Daily Forecast Email!

Thanks for signing up!

Be on the lookout for a verification email in your inbox.

You'll start receiving the daily forecast at 8 AM.

×

10-Day Weather Forecast

Almanac

Astronomy

Jan. 21, 2017 Rise Set
Actual Time
Civil Twilight
Nautical Twilight
Astronomical Twilight
Moon
Length of Visible Light
Length of Day
Tomorrow will be .
, % of the Moon is Illuminated

Today's Extremes

State Highs State Lows

Community

WunderPhotos

Upload Photos

1,962,540 photos uploaded!

WunderBlog® & News

Nearby

Air Quality

  Air Quality AQ Index Pollutant
Not available.

Snow Depth

Station Depth Elevation

Earthquake Activity

City Distance Mag. Time & Date
Minimum magnitude displayed is 2.5.

Coastal Water Temperatures

Place Temperature

Stations

Nearby Weather Stations

Station Location Temp. Windchill Dew Point Humidity Wind Precip. Elev Updated Type
                   

Watches & Warnings

Dense Fog Advisory
Issued: 4:09 PM EST Jan. 21, 2017 – National Weather Service

... Dense fog advisory in effect until 10 am EST Sunday...

The National Weather Service in Grand Rapids has issued a dense
fog advisory... which is in effect until 10 am EST Sunday.

Hazardous weather...

* areas of fog will develop and expand southward overnight.
   Widespread dense fog is expected for the entire area tonight
   into Sunday morning.

* Visibilities will be one-quarter mile or less.

* Fog will gradually dissipate through Sunday morning.

Impacts...

* hazardous driving conditions in reduced visibilities.

Precautionary/preparedness actions...

* if driving... slow down... use low beam headlights... and leave
plenty of distance ahead of you.



Jam